sensor_id;sensor_type;location;lat;lon;timestamp;P1;durP1;ratioP1;P2;durP2;ratioP2
69795;SDS011;57073;45.650;9.612;2022-10-22T00:01:33;12.63;;;7.00;;
69795;SDS011;57073;45.650;9.612;2022-10-22T00:03:33;10.13;;;6.27;;
69795;SDS011;57073;45.650;9.612;2022-10-22T00:05:35;13.23;;;7.23;;
69795;SDS011;57073;45.650;9.612;2022-10-22T00:07:35;9.10;;;6.40;;
69795;SDS011;57073;45.650;9.612;2022-10-22T00:09:36;12.60;;;7.47;;
69795;SDS011;57073;45.650;9.612;2022-10-22T00:11:36;13.33;;;6.70;;
69795;SDS011;57073;45.650;9.612;2022-10-22T00:13:36;12.87;;;6.67;;
69795;SDS011;57073;45.650;9.612;2022-10-22T00:15:37;11.90;;;6.80;;
69795;SDS011;57073;45.650;9.612;2022-10-22T00:17:37;12.50;;;6.87;;
69795;SDS011;57073;45.650;9.612;2022-10-22T00:19:38;11.97;;;6.63;;
69795;SDS011;57073;45.650;9.612;2022-10-22T00:21:39;10.70;;;6.18;;
69795;SDS011;57073;45.650;9.612;2022-10-22T00:23:40;11.27;;;7.27;;
69795;SDS011;57073;45.650;9.612;2022-10-22T00:25:41;9.98;;;6.40;;
69795;SDS011;57073;45.650;9.612;2022-10-22T00:27:41;10.93;;;6.20;;
69795;SDS011;57073;45.650;9.612;2022-10-22T00:29:42;13.87;;;6.40;;
69795;SDS011;57073;45.650;9.612;2022-10-22T00:31:42;10.37;;;6.47;;
69795;SDS011;57073;45.650;9.612;2022-10-22T00:33:48;11.80;;;6.55;;
69795;SDS011;57073;45.650;9.612;2022-10-22T00:35:48;12.17;;;7.00;;
69795;SDS011;57073;45.650;9.612;2022-10-22T00:37:49;11.20;;;6.80;;
69795;SDS011;57073;45.650;9.612;2022-10-22T00:39:49;12.10;;;6.55;;
69795;SDS011;57073;45.650;9.612;2022-10-22T00:41:50;11.23;;;6.30;;
69795;SDS011;57073;45.650;9.612;2022-10-22T00:43:56;11.00;;;6.60;;
69795;SDS011;57073;45.650;9.612;2022-10-22T00:46:01;14.57;;;6.73;;
69795;SDS011;57073;45.650;9.612;2022-10-22T00:48:09;11.93;;;6.47;;
69795;SDS011;57073;45.650;9.612;2022-10-22T00:50:32;12.47;;;6.33;;
69795;SDS011;57073;45.650;9.612;2022-10-22T00:52:36;12.55;;;6.78;;
69795;SDS011;57073;45.650;9.612;2022-10-22T00:54:37;11.43;;;6.68;;
69795;SDS011;57073;45.650;9.612;2022-10-22T00:56:38;10.90;;;6.05;;
69795;SDS011;57073;45.650;9.612;2022-10-22T00:58:40;11.33;;;6.50;;
69795;SDS011;57073;45.650;9.612;2022-10-22T01:00:44;9.82;;;6.25;;
69795;SDS011;57073;45.650;9.612;2022-10-22T01:02:44;10.77;;;6.13;;
69795;SDS011;57073;45.650;9.612;2022-10-22T01:04:46;12.18;;;6.25;;
69795;SDS011;57073;45.650;9.612;2022-10-22T01:06:46;11.17;;;6.53;;
69795;SDS011;57073;45.650;9.612;2022-10-22T01:13:27;10.25;;;6.30;;
69795;SDS011;57073;45.650;9.612;2022-10-22T01:22:45;13.20;;;6.23;;
69795;SDS011;57073;45.650;9.612;2022-10-22T01:25:02;11.95;;;6.68;;
69795;SDS011;57073;45.650;9.612;2022-10-22T01:27:17;13.90;;;6.60;;
69795;SDS011;57073;45.650;9.612;2022-10-22T01:29:21;10.73;;;6.38;;
69795;SDS011;57073;45.650;9.612;2022-10-22T01:31:29;15.02;;;6.72;;
69795;SDS011;57073;45.650;9.612;2022-10-22T01:33:33;11.53;;;6.13;;
69795;SDS011;57073;45.650;9.612;2022-10-22T01:35:39;14.70;;;6.97;;
69795;SDS011;57073;45.650;9.612;2022-10-22T01:37:45;14.88;;;7.03;;
69795;SDS011;57073;45.650;9.612;2022-10-22T01:39:48;12.45;;;7.22;;
69795;SDS011;57073;45.650;9.612;2022-10-22T01:41:52;12.77;;;7.03;;
69795;SDS011;57073;45.650;9.612;2022-10-22T01:43:54;13.77;;;7.37;;
69795;SDS011;57073;45.650;9.612;2022-10-22T01:45:58;11.18;;;7.22;;
69795;SDS011;57073;45.650;9.612;2022-10-22T01:50:31;15.40;;;7.53;;
69795;SDS011;57073;45.650;9.612;2022-10-22T01:53:02;14.43;;;7.40;;
69795;SDS011;57073;45.650;9.612;2022-10-22T01:55:18;15.48;;;7.60;;
69795;SDS011;57073;45.650;9.612;2022-10-22T01:57:32;16.55;;;7.75;;
69795;SDS011;57073;45.650;9.612;2022-10-22T01:59:58;15.05;;;6.97;;
69795;SDS011;57073;45.650;9.612;2022-10-22T02:04:33;14.77;;;7.53;;
69795;SDS011;57073;45.650;9.612;2022-10-22T02:06:40;16.40;;;7.78;;
69795;SDS011;57073;45.650;9.612;2022-10-22T02:08:42;13.70;;;8.30;;
69795;SDS011;57073;45.650;9.612;2022-10-22T02:10:44;14.25;;;7.57;;
69795;SDS011;57073;45.650;9.612;2022-10-22T02:12:51;15.73;;;8.02;;
69795;SDS011;57073;45.650;9.612;2022-10-22T02:14:54;13.90;;;8.00;;
69795;SDS011;57073;45.650;9.612;2022-10-22T02:16:56;17.45;;;8.38;;
69795;SDS011;57073;45.650;9.612;2022-10-22T02:18:58;16.83;;;8.32;;
69795;SDS011;57073;45.650;9.612;2022-10-22T02:21:03;15.20;;;8.25;;
69795;SDS011;57073;45.650;9.612;2022-10-22T02:23:05;12.50;;;8.30;;
69795;SDS011;57073;45.650;9.612;2022-10-22T02:25:06;18.70;;;8.53;;
69795;SDS011;57073;45.650;9.612;2022-10-22T02:27:08;18.58;;;8.50;;
69795;SDS011;57073;45.650;9.612;2022-10-22T02:29:18;16.20;;;8.40;;
69795;SDS011;57073;45.650;9.612;2022-10-22T02:31:24;15.98;;;8.60;;
69795;SDS011;57073;45.650;9.612;2022-10-22T02:33:32;15.90;;;8.45;;
69795;SDS011;57073;45.650;9.612;2022-10-22T02:35:37;16.30;;;8.03;;
69795;SDS011;57073;45.650;9.612;2022-10-22T02:37:40;14.13;;;7.75;;
69795;SDS011;57073;45.650;9.612;2022-10-22T02:39:41;12.95;;;8.45;;
69795;SDS011;57073;45.650;9.612;2022-10-22T02:41:43;15.82;;;8.40;;
69795;SDS011;57073;45.650;9.612;2022-10-22T02:43:44;13.53;;;8.07;;
69795;SDS011;57073;45.650;9.612;2022-10-22T02:45:49;13.68;;;8.20;;
69795;SDS011;57073;45.650;9.612;2022-10-22T02:47:50;13.97;;;7.60;;
69795;SDS011;57073;45.650;9.612;2022-10-22T02:49:51;16.47;;;8.50;;
69795;SDS011;57073;45.650;9.612;2022-10-22T02:51:51;16.37;;;8.77;;
69795;SDS011;57073;45.650;9.612;2022-10-22T02:53:52;15.07;;;8.38;;
69795;SDS011;57073;45.650;9.612;2022-10-22T02:55:52;19.43;;;8.53;;
69795;SDS011;57073;45.650;9.612;2022-10-22T02:57:52;15.67;;;7.90;;
69795;SDS011;57073;45.650;9.612;2022-10-22T02:59:53;14.87;;;8.10;;
69795;SDS011;57073;45.650;9.612;2022-10-22T03:01:53;15.00;;;8.07;;
69795;SDS011;57073;45.650;9.612;2022-10-22T03:03:53;11.87;;;7.27;;
69795;SDS011;57073;45.650;9.612;2022-10-22T03:05:54;14.43;;;7.90;;
69795;SDS011;57073;45.650;9.612;2022-10-22T03:07:54;16.43;;;7.73;;
69795;SDS011;57073;45.650;9.612;2022-10-22T03:09:54;16.37;;;8.10;;
69795;SDS011;57073;45.650;9.612;2022-10-22T03:11:55;13.47;;;7.87;;
69795;SDS011;57073;45.650;9.612;2022-10-22T03:13:55;14.80;;;8.57;;
69795;SDS011;57073;45.650;9.612;2022-10-22T03:15:55;14.07;;;8.13;;
69795;SDS011;57073;45.650;9.612;2022-10-22T03:17:56;12.27;;;8.17;;
69795;SDS011;57073;45.650;9.612;2022-10-22T03:19:56;15.23;;;7.70;;
69795;SDS011;57073;45.650;9.612;2022-10-22T03:22:00;16.03;;;8.20;;
69795;SDS011;57073;45.650;9.612;2022-10-22T03:24:23;13.70;;;7.72;;
69795;SDS011;57073;45.650;9.612;2022-10-22T03:26:26;13.00;;;7.88;;
69795;SDS011;57073;45.650;9.612;2022-10-22T03:28:27;16.03;;;7.87;;
69795;SDS011;57073;45.650;9.612;2022-10-22T03:30:28;13.98;;;8.45;;
69795;SDS011;57073;45.650;9.612;2022-10-22T03:32:28;12.80;;;7.40;;
69795;SDS011;57073;45.650;9.612;2022-10-22T03:34:29;14.53;;;7.93;;
69795;SDS011;57073;45.650;9.612;2022-10-22T03:36:30;11.17;;;7.33;;
69795;SDS011;57073;45.650;9.612;2022-10-22T03:38:31;11.77;;;7.47;;
69795;SDS011;57073;45.650;9.612;2022-10-22T03:40:34;12.35;;;7.45;;
69795;SDS011;57073;45.650;9.612;2022-10-22T03:42:35;14.23;;;7.55;;
69795;SDS011;57073;45.650;9.612;2022-10-22T03:44:35;12.80;;;7.47;;
69795;SDS011;57073;45.650;9.612;2022-10-22T03:46:37;13.97;;;8.00;;
69795;SDS011;57073;45.650;9.612;2022-10-22T03:48:37;13.38;;;6.88;;
69795;SDS011;57073;45.650;9.612;2022-10-22T03:50:37;12.03;;;7.20;;
69795;SDS011;57073;45.650;9.612;2022-10-22T03:52:38;14.77;;;7.40;;
69795;SDS011;57073;45.650;9.612;2022-10-22T03:54:39;13.73;;;7.97;;
69795;SDS011;57073;45.650;9.612;2022-10-22T03:56:41;13.67;;;7.90;;
69795;SDS011;57073;45.650;9.612;2022-10-22T03:58:41;13.55;;;7.78;;
69795;SDS011;57073;45.650;9.612;2022-10-22T04:00:41;12.33;;;7.73;;
69795;SDS011;57073;45.650;9.612;2022-10-22T04:02:42;14.70;;;8.17;;
69795;SDS011;57073;45.650;9.612;2022-10-22T04:04:42;14.63;;;7.60;;
69795;SDS011;57073;45.650;9.612;2022-10-22T04:06:42;15.43;;;8.27;;
69795;SDS011;57073;45.650;9.612;2022-10-22T04:08:43;14.57;;;7.53;;
69795;SDS011;57073;45.650;9.612;2022-10-22T04:10:49;13.53;;;8.40;;
69795;SDS011;57073;45.650;9.612;2022-10-22T04:12:50;16.23;;;8.13;;
69795;SDS011;57073;45.650;9.612;2022-10-22T04:14:50;15.60;;;8.63;;
69795;SDS011;57073;45.650;9.612;2022-10-22T04:16:51;16.17;;;8.85;;
69795;SDS011;57073;45.650;9.612;2022-10-22T04:18:51;17.80;;;9.23;;
69795;SDS011;57073;45.650;9.612;2022-10-22T04:20:51;14.83;;;9.03;;
69795;SDS011;57073;45.650;9.612;2022-10-22T04:22:52;15.60;;;8.83;;
69795;SDS011;57073;45.650;9.612;2022-10-22T04:24:52;23.38;;;9.88;;
69795;SDS011;57073;45.650;9.612;2022-10-22T04:26:53;17.10;;;9.17;;
69795;SDS011;57073;45.650;9.612;2022-10-22T04:28:53;19.07;;;9.47;;
69795;SDS011;57073;45.650;9.612;2022-10-22T04:30:54;13.95;;;8.93;;
69795;SDS011;57073;45.650;9.612;2022-10-22T04:32:54;16.70;;;8.93;;
69795;SDS011;57073;45.650;9.612;2022-10-22T04:34:55;14.47;;;8.20;;
69795;SDS011;57073;45.650;9.612;2022-10-22T04:36:55;13.33;;;8.10;;
69795;SDS011;57073;45.650;9.612;2022-10-22T04:38:57;14.17;;;8.03;;
69795;SDS011;57073;45.650;9.612;2022-10-22T04:41:15;15.05;;;8.52;;
69795;SDS011;57073;45.650;9.612;2022-10-22T04:43:18;13.23;;;8.77;;
69795;SDS011;57073;45.650;9.612;2022-10-22T04:45:18;15.20;;;9.43;;
69795;SDS011;57073;45.650;9.612;2022-10-22T04:47:18;16.53;;;8.97;;
69795;SDS011;57073;45.650;9.612;2022-10-22T04:49:19;18.63;;;9.03;;
69795;SDS011;57073;45.650;9.612;2022-10-22T04:51:20;12.03;;;8.30;;
69795;SDS011;57073;45.650;9.612;2022-10-22T04:53:21;14.80;;;8.38;;
69795;SDS011;57073;45.650;9.612;2022-10-22T04:55:21;15.60;;;8.53;;
69795;SDS011;57073;45.650;9.612;2022-10-22T04:57:21;12.87;;;8.63;;
69795;SDS011;57073;45.650;9.612;2022-10-22T04:59:22;15.63;;;8.97;;
69795;SDS011;57073;45.650;9.612;2022-10-22T05:01:23;14.03;;;9.10;;
69795;SDS011;57073;45.650;9.612;2022-10-22T05:03:26;15.48;;;9.77;;
69795;SDS011;57073;45.650;9.612;2022-10-22T05:05:27;15.32;;;8.93;;
69795;SDS011;57073;45.650;9.612;2022-10-22T05:07:27;17.00;;;9.33;;
69795;SDS011;57073;45.650;9.612;2022-10-22T05:09:28;20.50;;;8.87;;
69795;SDS011;57073;45.650;9.612;2022-10-22T05:11:29;16.07;;;9.27;;
69795;SDS011;57073;45.650;9.612;2022-10-22T05:13:32;15.52;;;9.13;;
69795;SDS011;57073;45.650;9.612;2022-10-22T05:15:33;16.17;;;9.40;;
69795;SDS011;57073;45.650;9.612;2022-10-22T05:17:36;13.73;;;8.43;;
69795;SDS011;57073;45.650;9.612;2022-10-22T05:19:37;17.90;;;8.75;;
69795;SDS011;57073;45.650;9.612;2022-10-22T05:21:37;13.57;;;8.70;;
69795;SDS011;57073;45.650;9.612;2022-10-22T05:23:38;18.87;;;9.00;;
69795;SDS011;57073;45.650;9.612;2022-10-22T05:25:38;14.20;;;8.82;;
69795;SDS011;57073;45.650;9.612;2022-10-22T05:27:39;14.93;;;9.27;;
69795;SDS011;57073;45.650;9.612;2022-10-22T05:29:39;15.00;;;8.50;;
69795;SDS011;57073;45.650;9.612;2022-10-22T05:31:39;13.93;;;8.70;;
69795;SDS011;57073;45.650;9.612;2022-10-22T05:33:40;18.95;;;9.32;;
69795;SDS011;57073;45.650;9.612;2022-10-22T05:35:41;19.27;;;8.87;;
69795;SDS011;57073;45.650;9.612;2022-10-22T05:37:41;15.97;;;8.87;;
69795;SDS011;57073;45.650;9.612;2022-10-22T05:39:42;15.25;;;9.07;;
69795;SDS011;57073;45.650;9.612;2022-10-22T05:41:42;14.40;;;8.87;;
69795;SDS011;57073;45.650;9.612;2022-10-22T05:43:42;18.30;;;9.13;;
69795;SDS011;57073;45.650;9.612;2022-10-22T05:45:43;15.88;;;9.27;;
69795;SDS011;57073;45.650;9.612;2022-10-22T05:47:43;15.17;;;8.73;;
69795;SDS011;57073;45.650;9.612;2022-10-22T05:49:44;16.07;;;8.63;;
69795;SDS011;57073;45.650;9.612;2022-10-22T05:51:44;17.40;;;9.30;;
69795;SDS011;57073;45.650;9.612;2022-10-22T05:53:49;14.68;;;8.80;;
69795;SDS011;57073;45.650;9.612;2022-10-22T05:55:51;14.98;;;8.90;;
69795;SDS011;57073;45.650;9.612;2022-10-22T05:57:52;16.37;;;8.90;;
69795;SDS011;57073;45.650;9.612;2022-10-22T05:59:52;16.83;;;8.83;;
69795;SDS011;57073;45.650;9.612;2022-10-22T06:01:52;13.37;;;8.50;;
69795;SDS011;57073;45.650;9.612;2022-10-22T06:03:54;17.70;;;9.60;;
69795;SDS011;57073;45.650;9.612;2022-10-22T06:05:58;18.27;;;10.10;;
69795;SDS011;57073;45.650;9.612;2022-10-22T06:08:00;19.38;;;9.95;;
69795;SDS011;57073;45.650;9.612;2022-10-22T06:10:01;20.73;;;9.33;;
69795;SDS011;57073;45.650;9.612;2022-10-22T06:12:01;14.00;;;9.03;;
69795;SDS011;57073;45.650;9.612;2022-10-22T06:14:02;15.88;;;9.30;;
69795;SDS011;57073;45.650;9.612;2022-10-22T06:16:03;17.00;;;8.77;;
69795;SDS011;57073;45.650;9.612;2022-10-22T06:18:03;15.80;;;8.87;;
69795;SDS011;57073;45.650;9.612;2022-10-22T06:20:04;16.40;;;8.90;;
69795;SDS011;57073;45.650;9.612;2022-10-22T06:22:05;15.63;;;8.55;;
69795;SDS011;57073;45.650;9.612;2022-10-22T06:24:06;15.37;;;9.37;;
69795;SDS011;57073;45.650;9.612;2022-10-22T06:26:07;19.70;;;9.43;;
69795;SDS011;57073;45.650;9.612;2022-10-22T06:28:08;12.57;;;8.65;;
69795;SDS011;57073;45.650;9.612;2022-10-22T06:30:09;13.97;;;8.60;;
69795;SDS011;57073;45.650;9.612;2022-10-22T06:32:10;14.97;;;8.83;;
69795;SDS011;57073;45.650;9.612;2022-10-22T06:34:11;18.47;;;9.20;;
69795;SDS011;57073;45.650;9.612;2022-10-22T06:36:13;16.63;;;9.13;;
69795;SDS011;57073;45.650;9.612;2022-10-22T06:38:15;15.70;;;8.48;;
69795;SDS011;57073;45.650;9.612;2022-10-22T06:40:16;14.17;;;8.43;;
69795;SDS011;57073;45.650;9.612;2022-10-22T06:42:17;15.98;;;8.60;;
69795;SDS011;57073;45.650;9.612;2022-10-22T06:44:18;16.10;;;9.10;;
69795;SDS011;57073;45.650;9.612;2022-10-22T06:46:19;15.43;;;8.45;;
69795;SDS011;57073;45.650;9.612;2022-10-22T06:48:20;16.02;;;8.43;;
69795;SDS011;57073;45.650;9.612;2022-10-22T06:50:21;15.87;;;8.60;;
69795;SDS011;57073;45.650;9.612;2022-10-22T06:52:21;18.97;;;8.43;;
69795;SDS011;57073;45.650;9.612;2022-10-22T06:54:21;15.63;;;9.17;;
69795;SDS011;57073;45.650;9.612;2022-10-22T06:56:23;15.47;;;8.93;;
69795;SDS011;57073;45.650;9.612;2022-10-22T06:58:24;12.60;;;8.20;;
69795;SDS011;57073;45.650;9.612;2022-10-22T07:00:25;14.20;;;8.73;;
69795;SDS011;57073;45.650;9.612;2022-10-22T07:02:25;16.47;;;9.83;;
69795;SDS011;57073;45.650;9.612;2022-10-22T07:04:25;17.27;;;9.40;;
69795;SDS011;57073;45.650;9.612;2022-10-22T07:06:26;16.77;;;9.17;;
69795;SDS011;57073;45.650;9.612;2022-10-22T07:08:27;19.77;;;9.27;;
69795;SDS011;57073;45.650;9.612;2022-10-22T07:10:28;17.30;;;8.23;;
69795;SDS011;57073;45.650;9.612;2022-10-22T07:12:29;14.70;;;8.37;;
69795;SDS011;57073;45.650;9.612;2022-10-22T07:14:29;16.10;;;8.07;;
69795;SDS011;57073;45.650;9.612;2022-10-22T07:24:58;15.43;;;9.10;;
69795;SDS011;57073;45.650;9.612;2022-10-22T07:26:58;19.70;;;9.67;;
69795;SDS011;57073;45.650;9.612;2022-10-22T07:28:59;17.83;;;9.10;;
69795;SDS011;57073;45.650;9.612;2022-10-22T07:30:59;15.90;;;9.00;;
69795;SDS011;57073;45.650;9.612;2022-10-22T07:33:00;14.07;;;9.30;;
69795;SDS011;57073;45.650;9.612;2022-10-22T07:35:00;15.00;;;9.50;;
69795;SDS011;57073;45.650;9.612;2022-10-22T07:37:00;19.77;;;9.93;;
69795;SDS011;57073;45.650;9.612;2022-10-22T07:39:01;18.83;;;9.13;;
69795;SDS011;57073;45.650;9.612;2022-10-22T07:41:02;16.05;;;8.95;;
69795;SDS011;57073;45.650;9.612;2022-10-22T07:43:03;18.30;;;9.37;;
69795;SDS011;57073;45.650;9.612;2022-10-22T07:45:04;15.48;;;9.45;;
69795;SDS011;57073;45.650;9.612;2022-10-22T07:47:05;15.73;;;9.13;;
69795;SDS011;57073;45.650;9.612;2022-10-22T07:49:05;13.85;;;9.00;;
69795;SDS011;57073;45.650;9.612;2022-10-22T07:51:06;15.67;;;8.60;;
69795;SDS011;57073;45.650;9.612;2022-10-22T07:53:07;18.73;;;9.10;;
69795;SDS011;57073;45.650;9.612;2022-10-22T07:55:07;15.57;;;9.17;;
69795;SDS011;57073;45.650;9.612;2022-10-22T07:57:08;16.27;;;8.90;;
69795;SDS011;57073;45.650;9.612;2022-10-22T07:59:08;14.93;;;9.27;;
69795;SDS011;57073;45.650;9.612;2022-10-22T08:01:08;14.93;;;9.30;;
69795;SDS011;57073;45.650;9.612;2022-10-22T08:03:12;17.37;;;10.10;;
69795;SDS011;57073;45.650;9.612;2022-10-22T08:05:14;15.02;;;9.48;;
69795;SDS011;57073;45.650;9.612;2022-10-22T08:07:15;17.80;;;9.95;;
69795;SDS011;57073;45.650;9.612;2022-10-22T08:09:16;18.17;;;10.13;;
69795;SDS011;57073;45.650;9.612;2022-10-22T08:11:17;18.42;;;10.40;;
69795;SDS011;57073;45.650;9.612;2022-10-22T08:13:17;16.37;;;9.53;;
69795;SDS011;57073;45.650;9.612;2022-10-22T08:15:18;16.92;;;9.60;;
69795;SDS011;57073;45.650;9.612;2022-10-22T08:17:18;20.83;;;9.63;;
69795;SDS011;57073;45.650;9.612;2022-10-22T08:19:19;17.03;;;9.63;;
69795;SDS011;57073;45.650;9.612;2022-10-22T08:21:20;16.30;;;9.68;;
69795;SDS011;57073;45.650;9.612;2022-10-22T08:23:20;19.07;;;9.60;;
69795;SDS011;57073;45.650;9.612;2022-10-22T08:25:21;14.33;;;9.80;;
69795;SDS011;57073;45.650;9.612;2022-10-22T08:27:21;19.70;;;9.80;;
69795;SDS011;57073;45.650;9.612;2022-10-22T08:29:22;15.67;;;9.43;;
69795;SDS011;57073;45.650;9.612;2022-10-22T08:31:23;16.67;;;10.07;;
69795;SDS011;57073;45.650;9.612;2022-10-22T08:33:23;18.23;;;9.70;;
69795;SDS011;57073;45.650;9.612;2022-10-22T08:35:24;15.93;;;9.77;;
69795;SDS011;57073;45.650;9.612;2022-10-22T08:37:24;16.63;;;9.80;;
69795;SDS011;57073;45.650;9.612;2022-10-22T08:39:24;17.13;;;9.27;;
69795;SDS011;57073;45.650;9.612;2022-10-22T08:41:25;15.27;;;8.60;;
69795;SDS011;57073;45.650;9.612;2022-10-22T08:50:07;19.67;;;9.80;;
69795;SDS011;57073;45.650;9.612;2022-10-22T08:52:15;14.13;;;8.50;;
69795;SDS011;57073;45.650;9.612;2022-10-22T08:59:16;15.18;;;9.02;;
69795;SDS011;57073;45.650;9.612;2022-10-22T09:01:32;16.00;;;9.50;;
69795;SDS011;57073;45.650;9.612;2022-10-22T09:03:40;16.80;;;8.75;;
69795;SDS011;57073;45.650;9.612;2022-10-22T09:06:09;16.75;;;9.38;;
69795;SDS011;57073;45.650;9.612;2022-10-22T09:08:11;19.80;;;10.63;;
69795;SDS011;57073;45.650;9.612;2022-10-22T09:10:14;16.48;;;9.93;;
69795;SDS011;57073;45.650;9.612;2022-10-22T09:12:19;17.17;;;8.97;;
69795;SDS011;57073;45.650;9.612;2022-10-22T09:14:23;16.42;;;9.80;;
69795;SDS011;57073;45.650;9.612;2022-10-22T09:18:38;17.80;;;8.85;;
69795;SDS011;57073;45.650;9.612;2022-10-22T09:24:55;16.95;;;10.30;;
69795;SDS011;57073;45.650;9.612;2022-10-22T09:26:58;20.80;;;9.87;;
69795;SDS011;57073;45.650;9.612;2022-10-22T09:29:00;17.88;;;10.48;;
69795;SDS011;57073;45.650;9.612;2022-10-22T09:31:00;19.88;;;10.90;;
69795;SDS011;57073;45.650;9.612;2022-10-22T09:35:44;18.60;;;10.23;;
69795;SDS011;57073;45.650;9.612;2022-10-22T09:37:46;20.40;;;10.47;;
69795;SDS011;57073;45.650;9.612;2022-10-22T09:39:51;18.55;;;10.07;;
69795;SDS011;57073;45.650;9.612;2022-10-22T09:41:53;20.98;;;10.13;;
69795;SDS011;57073;45.650;9.612;2022-10-22T09:43:53;18.43;;;9.90;;
69795;SDS011;57073;45.650;9.612;2022-10-22T09:45:58;19.43;;;9.20;;
69795;SDS011;57073;45.650;9.612;2022-10-22T09:48:08;17.30;;;9.73;;
69795;SDS011;57073;45.650;9.612;2022-10-22T09:52:57;18.27;;;10.30;;
69795;SDS011;57073;45.650;9.612;2022-10-22T09:54:57;15.88;;;9.40;;
69795;SDS011;57073;45.650;9.612;2022-10-22T09:57:05;17.43;;;9.20;;
69795;SDS011;57073;45.650;9.612;2022-10-22T09:59:17;15.88;;;8.82;;
69795;SDS011;57073;45.650;9.612;2022-10-22T10:01:24;14.63;;;9.07;;
69795;SDS011;57073;45.650;9.612;2022-10-22T10:03:27;17.25;;;9.30;;
69795;SDS011;57073;45.650;9.612;2022-10-22T10:05:32;15.77;;;8.82;;
69795;SDS011;57073;45.650;9.612;2022-10-22T10:07:34;15.47;;;9.40;;
69795;SDS011;57073;45.650;9.612;2022-10-22T10:09:36;13.77;;;9.00;;
69795;SDS011;57073;45.650;9.612;2022-10-22T10:11:38;19.43;;;9.50;;
69795;SDS011;57073;45.650;9.612;2022-10-22T10:14:07;16.35;;;8.90;;
69795;SDS011;57073;45.650;9.612;2022-10-22T10:16:37;14.80;;;8.98;;
69795;SDS011;57073;45.650;9.612;2022-10-22T10:18:56;14.25;;;8.73;;
69795;SDS011;57073;45.650;9.612;2022-10-22T10:30:24;14.38;;;8.38;;
69795;SDS011;57073;45.650;9.612;2022-10-22T10:34:38;14.38;;;8.80;;
69795;SDS011;57073;45.650;9.612;2022-10-22T10:36:57;16.48;;;9.10;;
69795;SDS011;57073;45.650;9.612;2022-10-22T10:39:19;13.25;;;8.68;;
69795;SDS011;57073;45.650;9.612;2022-10-22T10:44:01;16.92;;;8.50;;
69795;SDS011;57073;45.650;9.612;2022-10-22T10:46:32;15.93;;;9.43;;
69795;SDS011;57073;45.650;9.612;2022-10-22T10:53:03;15.63;;;8.23;;
69795;SDS011;57073;45.650;9.612;2022-10-22T11:00:09;17.73;;;9.27;;
69795;SDS011;57073;45.650;9.612;2022-10-22T11:02:21;16.92;;;9.32;;
69795;SDS011;57073;45.650;9.612;2022-10-22T11:06:47;17.85;;;9.45;;
69795;SDS011;57073;45.650;9.612;2022-10-22T11:08:50;18.02;;;9.55;;
69795;SDS011;57073;45.650;9.612;2022-10-22T11:15:30;18.20;;;9.97;;
69795;SDS011;57073;45.650;9.612;2022-10-22T11:17:38;17.50;;;9.80;;
69795;SDS011;57073;45.650;9.612;2022-10-22T11:19:51;18.13;;;9.77;;
69795;SDS011;57073;45.650;9.612;2022-10-22T11:24:19;17.83;;;9.27;;
69795;SDS011;57073;45.650;9.612;2022-10-22T11:26:39;16.10;;;8.90;;
69795;SDS011;57073;45.650;9.612;2022-10-22T11:28:49;15.93;;;10.00;;
69795;SDS011;57073;45.650;9.612;2022-10-22T11:30:56;15.93;;;9.50;;
69795;SDS011;57073;45.650;9.612;2022-10-22T11:33:01;17.20;;;9.05;;
69795;SDS011;57073;45.650;9.612;2022-10-22T11:35:05;18.23;;;9.93;;
69795;SDS011;57073;45.650;9.612;2022-10-22T11:37:11;18.97;;;9.80;;
69795;SDS011;57073;45.650;9.612;2022-10-22T11:41:58;18.35;;;10.02;;
69795;SDS011;57073;45.650;9.612;2022-10-22T11:48:17;14.90;;;9.27;;
69795;SDS011;57073;45.650;9.612;2022-10-22T11:52:39;17.52;;;9.57;;
69795;SDS011;57073;45.650;9.612;2022-10-22T11:54:46;17.90;;;8.95;;
69795;SDS011;57073;45.650;9.612;2022-10-22T11:56:47;15.03;;;8.97;;
69795;SDS011;57073;45.650;9.612;2022-10-22T11:58:52;15.60;;;9.10;;
69795;SDS011;57073;45.650;9.612;2022-10-22T12:08:30;16.75;;;9.48;;
69795;SDS011;57073;45.650;9.612;2022-10-22T12:10:44;14.60;;;8.93;;
69795;SDS011;57073;45.650;9.612;2022-10-22T12:13:10;16.40;;;8.38;;
69795;SDS011;57073;45.650;9.612;2022-10-22T12:15:22;13.70;;;8.77;;
69795;SDS011;57073;45.650;9.612;2022-10-22T12:17:26;14.52;;;8.30;;
69795;SDS011;57073;45.650;9.612;2022-10-22T12:19:31;17.40;;;9.18;;
69795;SDS011;57073;45.650;9.612;2022-10-22T12:21:36;14.18;;;8.77;;
69795;SDS011;57073;45.650;9.612;2022-10-22T12:23:38;15.40;;;9.20;;
69795;SDS011;57073;45.650;9.612;2022-10-22T12:25:38;16.47;;;9.53;;
69795;SDS011;57073;45.650;9.612;2022-10-22T12:27:39;18.97;;;9.77;;
69795;SDS011;57073;45.650;9.612;2022-10-22T12:29:40;15.50;;;9.48;;
69795;SDS011;57073;45.650;9.612;2022-10-22T12:31:41;15.57;;;9.23;;
69795;SDS011;57073;45.650;9.612;2022-10-22T12:33:43;15.65;;;9.68;;
69795;SDS011;57073;45.650;9.612;2022-10-22T12:35:44;14.97;;;9.43;;
69795;SDS011;57073;45.650;9.612;2022-10-22T12:37:53;16.95;;;9.27;;
69795;SDS011;57073;45.650;9.612;2022-10-22T12:39:55;15.48;;;9.40;;
69795;SDS011;57073;45.650;9.612;2022-10-22T12:41:55;16.43;;;9.17;;
69795;SDS011;57073;45.650;9.612;2022-10-22T12:43:59;17.60;;;9.03;;
69795;SDS011;57073;45.650;9.612;2022-10-22T12:46:00;13.55;;;9.05;;
69795;SDS011;57073;45.650;9.612;2022-10-22T12:48:02;13.77;;;9.00;;
69795;SDS011;57073;45.650;9.612;2022-10-22T12:50:05;15.13;;;9.07;;
69795;SDS011;57073;45.650;9.612;2022-10-22T12:52:06;15.60;;;9.43;;
69795;SDS011;57073;45.650;9.612;2022-10-22T12:54:26;15.43;;;8.80;;
69795;SDS011;57073;45.650;9.612;2022-10-22T12:56:33;13.68;;;8.80;;
69795;SDS011;57073;45.650;9.612;2022-10-22T12:58:38;15.05;;;8.85;;
69795;SDS011;57073;45.650;9.612;2022-10-22T13:00:44;14.30;;;9.27;;
69795;SDS011;57073;45.650;9.612;2022-10-22T13:02:45;12.68;;;8.32;;
69795;SDS011;57073;45.650;9.612;2022-10-22T13:07:36;11.27;;;7.70;;
69795;SDS011;57073;45.650;9.612;2022-10-22T13:09:42;13.52;;;7.40;;
69795;SDS011;57073;45.650;9.612;2022-10-22T13:13:50;12.70;;;7.30;;
69795;SDS011;57073;45.650;9.612;2022-10-22T13:15:50;11.57;;;7.07;;
69795;SDS011;57073;45.650;9.612;2022-10-22T13:17:59;9.77;;;6.80;;
69795;SDS011;57073;45.650;9.612;2022-10-22T13:20:19;13.63;;;7.57;;
69795;SDS011;57073;45.650;9.612;2022-10-22T13:22:24;11.88;;;7.07;;
69795;SDS011;57073;45.650;9.612;2022-10-22T13:24:28;14.23;;;8.57;;
69795;SDS011;57073;45.650;9.612;2022-10-22T13:26:33;14.52;;;8.75;;
69795;SDS011;57073;45.650;9.612;2022-10-22T13:28:36;14.80;;;8.00;;
69795;SDS011;57073;45.650;9.612;2022-10-22T13:30:36;17.77;;;8.40;;
69795;SDS011;57073;45.650;9.612;2022-10-22T13:32:37;13.32;;;7.68;;
69795;SDS011;57073;45.650;9.612;2022-10-22T13:34:39;15.48;;;8.07;;
69795;SDS011;57073;45.650;9.612;2022-10-22T13:36:39;16.43;;;7.90;;
69795;SDS011;57073;45.650;9.612;2022-10-22T13:38:40;9.93;;;5.60;;
69795;SDS011;57073;45.650;9.612;2022-10-22T13:40:41;10.55;;;5.72;;
69795;SDS011;57073;45.650;9.612;2022-10-22T13:42:42;13.27;;;5.97;;
69795;SDS011;57073;45.650;9.612;2022-10-22T13:44:42;10.43;;;5.27;;
69795;SDS011;57073;45.650;9.612;2022-10-22T13:46:42;9.63;;;5.07;;
69795;SDS011;57073;45.650;9.612;2022-10-22T13:48:44;9.98;;;4.85;;
69795;SDS011;57073;45.650;9.612;2022-10-22T13:50:45;8.77;;;4.93;;
69795;SDS011;57073;45.650;9.612;2022-10-22T13:52:48;9.75;;;5.70;;
69795;SDS011;57073;45.650;9.612;2022-10-22T13:54:51;7.82;;;4.95;;